Time;durP1;ratioP1;P1;durP2;ratioP2;P2;SDS_P1;SDS_P2;PMS_P1;PMS_P2;Temp;Humidity;BMP_temperature;BMP_pressure;BME280_temperature;BME280_humidity;BME280_pressure;Samples;Min_cycle;Max_cycle;Signal;HPM_P1;HPM_P2
2024/02/23 00:01:15;;;;;;;2.33;0.70;;;;;;;3.26;96.78;97326.25;5073331;28;20048;-59
2024/02/23 00:03:43;;;;;;;4.72;1.23;;;;;;;3.25;97.05;97312.97;5061590;28;20040;-59
2024/02/23 00:06:12;;;;;;;4.10;1.00;;;;;;;3.27;97.02;97321.56;5074109;28;20075;-59
2024/02/23 00:08:41;;;;;;;4.30;1.13;;;;;;;3.25;97.21;97315.72;5071358;28;20045;-59
2024/02/23 00:11:08;;;;;;;3.13;1.00;;;;;;;3.25;97.15;97318.44;5074159;28;20529;-59
2024/02/23 00:13:36;;;;;;;4.20;0.80;;;;;;;3.22;97.31;97314.53;5085764;28;20087;-59
2024/02/23 00:16:03;;;;;;;2.40;1.00;;;;;;;3.22;97.47;97311.00;5085902;28;20059;-60
2024/02/23 00:18:31;;;;;;;1.75;0.90;;;;;;;3.21;97.44;97323.09;5075244;28;20048;-59
2024/02/23 00:20:58;;;;;;;3.85;1.08;;;;;;;3.20;97.17;97311.38;5070845;28;20056;-60
2024/02/23 00:23:25;;;;;;;3.85;1.48;;;;;;;3.20;97.23;97300.44;5067705;28;20039;-56
2024/02/23 00:25:53;;;;;;;1.30;0.70;;;;;;;3.20;97.23;97321.53;5066320;28;20752;-59
2024/02/23 00:28:20;;;;;;;1.20;1.05;;;;;;;3.21;97.68;97323.09;5079908;28;20039;-60
2024/02/23 00:30:47;;;;;;;1.52;1.10;;;;;;;3.21;97.45;97323.09;5086368;28;20052;-56
2024/02/23 00:33:15;;;;;;;3.70;1.65;;;;;;;3.22;97.51;97313.72;5078060;28;20044;-60
2024/02/23 00:35:42;;;;;;;1.80;0.85;;;;;;;3.21;97.60;97321.13;5076833;28;20055;-57
2024/02/23 00:38:10;;;;;;;9.52;1.73;;;;;;;3.21;97.62;97318.41;5083892;28;20044;-59
2024/02/23 00:40:38;;;;;;;1.80;0.90;;;;;;;3.20;97.70;97313.34;5081084;28;20044;-59
2024/02/23 00:43:05;;;;;;;2.53;1.17;;;;;;;3.17;97.86;97328.53;5089970;28;20052;-60
2024/02/23 00:45:33;;;;;;;5.03;1.40;;;;;;;3.16;97.83;97339.84;5090311;28;20059;-58
2024/02/23 00:48:00;;;;;;;5.68;1.77;;;;;;;3.14;97.94;97340.22;5089634;28;20048;-59
2024/02/23 00:50:28;;;;;;;4.47;1.20;;;;;;;3.12;97.94;97344.50;5090094;28;20048;-58
2024/02/23 00:52:56;;;;;;;1.92;1.17;;;;;;;3.11;97.73;97340.97;5083807;28;20040;-58
2024/02/23 00:55:25;;;;;;;4.72;1.23;;;;;;;3.13;98.10;97349.59;5082108;28;20047;-60
2024/02/23 00:57:52;;;;;;;3.17;1.00;;;;;;;3.16;98.06;97350.78;5074549;28;20048;-58
2024/02/23 01:00:19;;;;;;;1.23;0.60;;;;;;;3.17;97.77;97344.16;5086760;28;20052;-59
2024/02/23 01:02:47;;;;;;;2.05;1.10;;;;;;;3.17;97.96;97344.16;5082216;28;20044;-56
2024/02/23 01:05:14;;;;;;;2.30;0.80;;;;;;;3.17;97.98;97360.56;5085262;28;20051;-58
2024/02/23 01:07:42;;;;;;;11.23;3.47;;;;;;;3.15;98.18;97349.97;5076087;28;20593;-57
2024/02/23 01:10:09;;;;;;;5.32;1.67;;;;;;;3.15;97.87;97339.03;5077524;28;20048;-57
2024/02/23 01:12:38;;;;;;;2.42;1.00;;;;;;;3.14;98.07;97336.72;5083609;28;20040;-58
2024/02/23 01:15:05;;;;;;;4.28;0.63;;;;;;;3.11;98.42;97338.25;5084211;28;20103;-60
2024/02/23 01:17:32;;;;;;;3.42;1.75;;;;;;;3.07;98.43;97343.69;5079242;28;20052;-57
2024/02/23 01:20:00;;;;;;;2.67;1.38;;;;;;;3.04;98.66;97325.31;5077597;28;20727;-59
2024/02/23 01:22:28;;;;;;;3.85;1.05;;;;;;;3.03;98.53;97334.69;5075447;28;20048;-58
2024/02/23 01:24:55;;;;;;;5.82;0.90;;;;;;;2.99;98.87;97317.47;5087882;28;20527;-56
2024/02/23 01:27:22;;;;;;;4.45;1.23;;;;;;;2.98;98.89;97331.50;5077475;28;20063;-58
2024/02/23 01:29:50;;;;;;;5.43;1.92;;;;;;;2.97;98.55;97324.47;5082238;28;20036;-58
2024/02/23 01:32:17;;;;;;;2.50;1.42;;;;;;;2.95;99.13;97326.78;5089469;28;20043;-59
2024/02/23 01:34:44;;;;;;;2.97;1.38;;;;;;;2.94;98.84;97331.47;5089105;28;20052;-60
2024/02/23 01:37:12;;;;;;;6.15;1.38;;;;;;;2.94;99.10;97331.47;5082594;28;20044;-59
2024/02/23 01:39:39;;;;;;;5.53;1.77;;;;;;;2.94;99.41;97336.16;5076344;28;20394;-59
2024/02/23 01:42:07;;;;;;;6.20;1.52;;;;;;;2.95;99.61;97326.78;5073024;28;20044;-56
2024/02/23 01:44:35;;;;;;;7.18;1.20;;;;;;;2.96;99.34;97329.16;5077932;28;20412;-58
2024/02/23 01:47:02;;;;;;;6.97;1.42;;;;;;;2.97;99.61;97330.72;5085046;28;20413;-58
2024/02/23 01:49:32;;;;;;;6.00;1.50;;;;;;;2.98;99.57;97326.84;5084266;28;20052;-57
2024/02/23 01:52:01;;;;;;;4.15;1.00;;;;;;;2.97;99.85;97322.53;5078996;28;20842;-57
2024/02/23 01:54:29;;;;;;;10.13;1.63;;;;;;;2.96;99.80;97318.25;5087185;28;20048;-59
2024/02/23 01:56:58;;;;;;;2.75;1.02;;;;;;;2.96;100.00;97323.72;5082583;28;20047;-59
2024/02/23 01:59:43;;;;;;;2.85;1.50;;;;;;;2.95;100.00;97313.94;5075712;28;20052;-59
2024/02/23 02:02:10;;;;;;;3.65;1.20;;;;;;;2.94;100.00;97314.28;5084550;28;20047;-58
2024/02/23 02:04:38;;;;;;;5.00;1.20;;;;;;;2.93;100.00;97318.19;5087197;28;20048;-59
2024/02/23 02:07:06;;;;;;;5.55;1.83;;;;;;;2.94;100.00;97308.81;5079959;28;20040;-58
2024/02/23 02:09:33;;;;;;;4.40;1.17;;;;;;;2.93;100.00;97296.34;5077546;28;20048;-60
2024/02/23 02:12:00;;;;;;;7.15;3.10;;;;;;;2.93;100.00;97297.13;5077704;28;20048;-60
2024/02/23 02:14:31;;;;;;;5.65;1.50;;;;;;;2.92;100.00;97300.22;5073454;28;20544;-60
2024/02/23 02:16:58;;;;;;;5.68;1.60;;;;;;;2.93;100.00;97301.81;5074155;28;20413;-59
2024/02/23 02:19:26;;;;;;;3.10;1.15;;;;;;;2.93;100.00;97301.81;5074614;28;20055;-59
2024/02/23 02:21:53;;;;;;;2.75;1.23;;;;;;;2.93;100.00;97308.06;5069859;28;20044;-57
2024/02/23 02:24:21;;;;;;;5.20;1.35;;;;;;;2.93;100.00;97307.28;5071701;28;20048;-61
2024/02/23 02:26:50;;;;;;;1.98;0.82;;;;;;;2.93;100.00;97297.13;5080007;28;20052;-58
2024/02/23 02:29:17;;;;;;;6.85;0.90;;;;;;;2.93;100.00;97308.06;5079043;28;20044;-58
2024/02/23 02:31:45;;;;;;;4.40;1.40;;;;;;;2.94;100.00;97314.28;5086878;28;20055;-59
2024/02/23 02:34:14;;;;;;;4.38;0.80;;;;;;;2.94;100.00;97325.22;5082436;28;20059;-59
2024/02/23 02:36:42;;;;;;;6.13;0.85;;;;;;;2.94;100.00;97323.28;5075001;28;20037;-59
2024/02/23 02:39:10;;;;;;;3.42;0.90;;;;;;;2.94;100.00;97309.63;5081749;28;20075;-58
2024/02/23 02:41:38;;;;;;;4.85;0.90;;;;;;;2.93;100.00;97324.47;5075726;28;20051;-59
2024/02/23 02:44:05;;;;;;;3.50;1.08;;;;;;;2.92;100.00;97317.41;5073021;28;20070;-59
2024/02/23 02:46:32;;;;;;;2.30;0.80;;;;;;;2.91;100.00;97321.28;5084611;28;20051;-59
2024/02/23 02:49:00;;;;;;;5.15;1.23;;;;;;;2.89;100.00;97326.38;5078259;28;20047;-59
2024/02/23 02:51:27;;;;;;;8.25;1.30;;;;;;;2.87;100.00;97323.22;5083041;28;20060;-59
2024/02/23 02:53:55;;;;;;;4.95;1.05;;;;;;;2.87;100.00;97331.44;5074691;28;20130;-59
2024/02/23 02:56:22;;;;;;;6.47;1.35;;;;;;;2.86;100.00;97335.31;5066945;28;20041;-59
2024/02/23 02:58:50;;;;;;;5.80;2.15;;;;;;;2.84;100.00;97350.50;5068895;28;20778;-58
2024/02/23 03:01:17;;;;;;;5.68;0.73;;;;;;;2.84;100.00;97354.03;5126958;22;20092;-58
2024/02/23 03:03:45;;;;;;;5.20;1.80;;;;;;;2.85;100.00;97350.16;5027331;28;20056;-59
2024/02/23 03:06:13;;;;;;;2.33;0.98;;;;;;;2.86;100.00;97351.69;5026394;28;20522;-60
2024/02/23 03:08:42;;;;;;;4.30;0.98;;;;;;;2.87;100.00;97356.00;5020939;28;20050;-59
2024/02/23 03:11:10;;;;;;;2.47;0.50;;;;;;;2.87;100.00;97353.28;5025271;28;20052;-59
2024/02/23 03:13:37;;;;;;;5.72;0.68;;;;;;;2.87;100.00;97357.94;5027052;28;20053;-59
2024/02/23 03:16:04;;;;;;;5.20;0.70;;;;;;;2.87;100.00;97369.66;5026889;28;20060;-59
2024/02/23 03:18:32;;;;;;;5.30;0.95;;;;;;;2.85;100.00;97355.59;5026035;28;20045;-59
2024/02/23 03:20:59;;;;;;;3.70;0.75;;;;;;;2.84;100.00;97367.69;5026879;28;20092;-59
2024/02/23 03:23:28;;;;;;;5.57;1.13;;;;;;;2.84;100.00;97370.41;5026125;28;20041;-59
2024/02/23 03:25:56;;;;;;;5.55;0.70;;;;;;;2.83;100.00;97366.09;5026691;28;20503;-59
2024/02/23 03:28:23;;;;;;;1.48;0.32;;;;;;;2.85;100.00;97376.66;5026128;28;20045;-59
2024/02/23 03:30:50;;;;;;;2.97;1.25;;;;;;;2.85;100.00;97366.53;5025099;28;20056;-60
2024/02/23 03:33:18;;;;;;;1.15;0.28;;;;;;;2.82;100.00;97361.81;5026756;28;20513;-59
2024/02/23 03:35:45;;;;;;;1.30;0.55;;;;;;;2.82;100.00;97361.81;5026238;28;20049;-60
2024/02/23 03:38:13;;;;;;;3.65;0.63;;;;;;;2.81;100.00;97356.72;5022085;28;20574;-59
2024/02/23 03:40:41;;;;;;;1.17;1.05;;;;;;;2.81;100.00;97354.00;5023641;28;20060;-59
2024/02/23 03:43:08;;;;;;;0.40;0.38;;;;;;;2.81;100.00;97354.78;5026282;28;20065;-59
2024/02/23 03:45:36;;;;;;;1.33;0.30;;;;;;;2.81;100.00;97354.78;5025558;28;20041;-59
2024/02/23 03:48:04;;;;;;;0.75;0.30;;;;;;;2.81;100.00;97346.59;5026643;28;20052;-59
2024/02/23 03:50:32;;;;;;;6.57;1.13;;;;;;;2.81;100.00;97335.66;5026181;28;20074;-58
2024/02/23 03:52:59;;;;;;;2.53;0.30;;;;;;;2.80;100.00;97342.31;5025007;28;20076;-59
2024/02/23 03:55:27;;;;;;;3.75;0.60;;;;;;;2.80;100.00;97331.38;5025536;28;20564;-59
2024/02/23 03:57:54;;;;;;;1.88;0.25;;;;;;;2.77;100.00;97332.13;5026421;28;20058;-59
2024/02/23 04:00:23;;;;;;;3.03;0.50;;;;;;;2.76;100.00;97330.53;5025686;28;20053;-59
2024/02/23 04:02:50;;;;;;;2.50;0.10;;;;;;;2.73;100.00;97323.09;5026486;28;20049;-59
2024/02/23 04:05:18;;;;;;;2.47;0.30;;;;;;;2.72;100.00;97329.75;5023860;28;20072;-59
2024/02/23 04:07:46;;;;;;;1.75;0.20;;;;;;;2.70;100.00;97331.28;5025619;28;20041;-59
2024/02/23 04:10:19;;;;;;;1.00;0.32;;;;;;;2.68;100.00;97320.72;5025082;28;20358;-58
2024/02/23 04:12:47;;;;;;;3.55;0.57;;;;;;;2.66;100.00;97323.03;5024296;28;20546;-59
2024/02/23 04:15:14;;;;;;;2.78;0.20;;;;;;;2.64;100.00;97317.19;5025435;28;20045;-59
2024/02/23 04:17:42;;;;;;;3.55;0.52;;;;;;;2.62;100.00;97319.47;5025130;28;20041;-59
2024/02/23 04:20:10;;;;;;;1.20;0.17;;;;;;;2.61;100.00;97317.13;5024249;28;20521;-59
2024/02/23 04:22:38;;;;;;;3.20;0.60;;;;;;;2.60;100.00;97313.63;5025732;28;20057;-59
2024/02/23 04:25:05;;;;;;;2.22;0.55;;;;;;;2.59;100.00;97314.78;5025984;28;20057;-59
2024/02/23 04:27:33;;;;;;;0.65;0.10;;;;;;;2.58;100.00;97315.94;5025392;28;20049;-58
2024/02/23 04:30:00;;;;;;;1.90;0.35;;;;;;;2.59;100.00;97312.06;5026212;28;20045;-60
2024/02/23 04:32:27;;;;;;;0.32;0.20;;;;;;;2.59;100.00;97317.53;5025123;28;20068;-59
2024/02/23 04:34:55;;;;;;;0.95;0.30;;;;;;;2.60;100.00;97310.88;5025744;28;20053;-59
2024/02/23 04:37:22;;;;;;;1.08;0.30;;;;;;;2.61;100.00;97314.41;5025188;28;20049;-59
2024/02/23 04:39:50;;;;;;;0.38;0.30;;;;;;;2.63;100.00;97314.81;5025509;28;20052;-59
2024/02/23 04:42:17;;;;;;;0.30;0.30;;;;;;;2.64;100.00;97327.31;5025540;28;20041;-60
2024/02/23 04:44:45;;;;;;;0.75;0.40;;;;;;;2.63;100.00;97315.59;5025635;28;20041;-59
2024/02/23 04:47:13;;;;;;;0.82;0.30;;;;;;;2.64;100.00;97310.94;5025502;28;20538;-59
2024/02/23 04:49:40;;;;;;;1.83;0.40;;;;;;;2.65;100.00;97307.81;5024796;28;20076;-59
2024/02/23 04:52:08;;;;;;;2.88;0.68;;;;;;;2.66;100.00;97312.13;5026342;28;20053;-59
2024/02/23 04:54:36;;;;;;;2.03;0.30;;;;;;;2.66;100.00;97322.25;5024438;28;20569;-59
2024/02/23 04:57:03;;;;;;;2.92;0.35;;;;;;;2.67;100.00;97319.16;5025067;28;20052;-59
2024/02/23 04:59:32;;;;;;;2.85;0.55;;;;;;;2.68;100.00;97330.84;5023546;28;20381;-59
2024/02/23 05:01:59;;;;;;;0.75;0.40;;;;;;;2.68;100.00;97334.38;5025114;28;20498;-59
2024/02/23 05:04:28;;;;;;;3.53;0.45;;;;;;;2.66;100.00;97331.25;5025564;28;20046;-59
2024/02/23 05:06:55;;;;;;;1.85;0.30;;;;;;;2.65;100.00;97335.13;5024903;28;20058;-59
2024/02/23 05:09:23;;;;;;;0.57;0.30;;;;;;;2.66;100.00;97335.91;5024367;28;20582;-60
2024/02/23 05:11:50;;;;;;;5.18;0.30;;;;;;;2.64;100.00;97338.22;5025389;28;20064;-59
2024/02/23 05:14:18;;;;;;;0.52;0.13;;;;;;;2.64;100.00;97338.22;5025898;28;20041;-60
2024/02/23 05:16:45;;;;;;;2.30;0.10;;;;;;;2.61;100.00;97356.16;5019918;28;20049;-60
2024/02/23 05:19:13;;;;;;;1.30;0.20;;;;;;;2.60;100.00;97348.31;5024403;28;20600;-59
2024/02/23 05:21:40;;;;;;;2.20;0.20;;;;;;;2.58;100.00;97343.25;5024914;28;20057;-60
2024/02/23 05:24:07;;;;;;;0.55;0.20;;;;;;;2.57;100.00;97349.84;5028379;28;20084;-60
2024/02/23 05:26:35;;;;;;;0.38;0.20;;;;;;;2.57;100.00;97360.03;5028720;28;20041;-60
2024/02/23 05:29:03;;;;;;;0.38;0.15;;;;;;;2.54;100.00;97350.63;5028517;28;20380;-60
2024/02/23 05:31:49;;;;;;;1.05;0.20;;;;;;;2.53;100.00;97348.25;5028257;28;20049;-60
2024/02/23 05:34:16;;;;;;;1.75;0.38;;;;;;;2.53;100.00;97354.50;5028344;28;20041;-63
2024/02/23 05:36:45;;;;;;;3.55;0.30;;;;;;;2.51;100.00;97356.84;5028823;28;20438;-62
2024/02/23 05:39:15;;;;;;;0.57;0.35;;;;;;;2.50;100.00;97349.00;5027886;28;20060;-60
2024/02/23 05:41:43;;;;;;;2.05;0.30;;;;;;;2.50;100.00;97357.19;5028257;28;20080;-61
2024/02/23 05:44:10;;;;;;;2.55;0.30;;;;;;;2.48;100.00;97357.59;5029049;28;20050;-61
2024/02/23 05:46:38;;;;;;;0.90;0.38;;;;;;;2.46;100.00;97366.13;5028618;28;20430;-60
2024/02/23 05:49:05;;;;;;;2.80;0.40;;;;;;;2.47;100.00;97369.66;5025167;28;20045;-60
2024/02/23 05:51:33;;;;;;;2.05;0.75;;;;;;;2.45;100.00;97380.97;5026565;28;20430;-60
2024/02/23 05:54:01;;;;;;;3.95;0.57;;;;;;;2.44;100.00;97379.38;5028627;28;20053;-60
2024/02/23 05:56:28;;;;;;;2.35;0.25;;;;;;;2.44;100.00;97382.09;5027959;28;20050;-60
2024/02/23 05:58:55;;;;;;;0.30;0.20;;;;;;;2.42;100.00;97378.19;5027831;28;20045;-60
2024/02/23 06:01:23;;;;;;;0.70;0.20;;;;;;;2.43;100.00;97387.94;5027047;28;20061;-60
2024/02/23 06:03:50;;;;;;;3.30;0.30;;;;;;;2.41;100.00;97373.88;5028195;28;20049;-60
2024/02/23 06:06:17;;;;;;;2.38;0.93;;;;;;;2.41;100.00;97384.78;5028070;28;20407;-60
2024/02/23 06:08:46;;;;;;;1.75;0.52;;;;;;;2.40;100.00;97383.25;5025907;28;20403;-60
2024/02/23 06:11:13;;;;;;;1.30;0.30;;;;;;;2.38;100.00;97380.09;5023451;28;20511;-59
2024/02/23 06:13:41;;;;;;;3.45;0.85;;;;;;;2.39;100.00;97395.31;5027344;28;20133;-60
2024/02/23 06:16:11;;;;;;;6.68;0.45;;;;;;;2.37;100.00;97387.50;5027712;28;20046;-60
2024/02/23 06:18:41;;;;;;;1.15;0.35;;;;;;;2.35;100.00;97391.75;5026977;28;20380;-60
2024/02/23 06:21:13;;;;;;;1.30;0.30;;;;;;;2.36;100.00;97382.41;5027945;28;20060;-60
2024/02/23 06:23:41;;;;;;;0.40;0.40;;;;;;;2.35;100.00;97380.84;5027538;28;20446;-60
2024/02/23 06:26:09;;;;;;;5.07;0.50;;;;;;;2.36;100.00;97393.31;5027743;28;20466;-60
2024/02/23 06:28:38;;;;;;;3.47;0.85;;;;;;;2.36;100.00;97387.84;5026834;28;20465;-60
2024/02/23 06:31:06;;;;;;;4.38;1.35;;;;;;;2.36;100.00;97404.22;5027478;28;20049;-60
2024/02/23 06:33:34;;;;;;;3.50;0.57;;;;;;;2.37;100.00;97389.44;5027625;28;20050;-60
2024/02/23 06:36:03;;;;;;;2.90;0.45;;;;;;;2.36;100.00;97396.84;5027424;28;20049;-60
2024/02/23 06:38:30;;;;;;;5.05;0.63;;;;;;;2.37;100.00;97400.34;5026648;28;20563;-60
2024/02/23 06:40:58;;;;;;;1.15;0.57;;;;;;;2.37;100.00;97411.28;5026566;28;20132;-60
2024/02/23 06:43:25;;;;;;;2.38;0.63;;;;;;;2.38;100.00;97404.66;5026707;28;20049;-60
2024/02/23 06:45:52;;;;;;;2.35;0.90;;;;;;;2.40;100.00;97399.63;5020401;28;20057;-60
2024/02/23 06:48:20;;;;;;;0.65;0.50;;;;;;;2.39;100.00;97393.38;5027350;28;20061;-60
2024/02/23 06:50:48;;;;;;;2.15;1.45;;;;;;;2.41;100.00;97401.16;5027225;28;20084;-61
2024/02/23 06:53:16;;;;;;;7.25;0.80;;;;;;;2.41;100.00;97407.41;5026871;28;20045;-60
2024/02/23 06:55:43;;;;;;;3.60;0.68;;;;;;;2.40;100.00;97405.06;5026944;28;20061;-59
2024/02/23 06:58:13;;;;;;;5.22;0.75;;;;;;;2.40;100.00;97416.00;5027183;28;20045;-59
2024/02/23 07:00:40;;;;;;;7.78;0.90;;;;;;;2.40;100.00;97421.44;5025744;28;20053;-60
2024/02/23 07:03:08;;;;;;;3.00;0.82;;;;;;;2.39;100.00;97414.41;5026492;28;20371;-60
2024/02/23 07:05:36;;;;;;;0.63;0.45;;;;;;;2.39;100.00;97419.88;5026293;28;20463;-60
2024/02/23 07:08:04;;;;;;;3.25;0.82;;;;;;;2.40;100.00;97433.16;5026166;28;20064;-60
2024/02/23 07:10:32;;;;;;;2.28;1.08;;;;;;;2.39;100.00;97428.06;5027029;28;20053;-60
2024/02/23 07:13:00;;;;;;;4.07;0.60;;;;;;;2.43;100.00;97426.16;5025365;28;20487;-56
2024/02/23 07:15:32;;;;;;;3.85;0.57;;;;;;;2.45;100.00;97423.84;5026196;28;20049;-60
2024/02/23 07:18:00;;;;;;;4.55;0.70;;;;;;;2.46;100.00;97425.44;5021345;28;20045;-59
2024/02/23 07:20:28;;;;;;;4.35;1.05;;;;;;;2.45;100.00;97432.84;5024839;28;20057;-59
2024/02/23 07:22:58;;;;;;;4.00;1.23;;;;;;;2.43;100.00;97432.44;5026946;28;20553;-60
2024/02/23 07:25:26;;;;;;;1.80;0.60;;;;;;;2.43;100.00;97434.38;5024937;28;20053;-61
2024/02/23 07:27:54;;;;;;;4.18;0.95;;;;;;;2.42;100.00;97440.97;5027120;28;20053;-61
2024/02/23 07:30:21;;;;;;;1.35;0.65;;;;;;;2.41;100.00;97448.38;5026316;28;20049;-60
2024/02/23 07:32:49;;;;;;;2.83;0.52;;;;;;;2.41;100.00;97450.31;5026753;28;20045;-60
2024/02/23 07:35:20;;;;;;;8.45;1.48;;;;;;;2.38;100.00;97453.81;5026565;28;20054;-63
2024/02/23 07:37:48;;;;;;;3.22;1.02;;;;;;;2.39;100.00;97458.88;5023808;28;20056;-60
2024/02/23 07:40:16;;;;;;;1.60;1.50;;;;;;;2.39;100.00;97463.53;5026001;28;20415;-61
2024/02/23 07:42:48;;;;;;;;;;;;;;;2.39;100.00;97464.34;5028172;28;20050;-60
2024/02/23 07:45:21;;;;;;;4.72;0.63;;;;;;;2.37;100.00;97465.88;5024211;28;19929;-63
2024/02/23 07:47:49;;;;;;;3.60;0.95;;;;;;;2.38;100.00;97472.91;5039269;28;20048;-59
2024/02/23 07:50:18;;;;;;;4.50;0.60;;;;;;;2.39;100.00;97463.53;5031117;28;21236;-61
2024/02/23 07:52:48;;;;;;;3.28;0.70;;;;;;;2.42;100.00;97460.88;5031180;28;20057;-60
2024/02/23 07:55:18;;;;;;;5.35;0.70;;;;;;;2.46;100.00;97460.94;5027312;28;20045;-59
2024/02/23 07:57:50;;;;;;;3.20;1.13;;;;;;;2.47;100.00;97460.53;4994100;28;20099;-60
2024/02/23 08:00:19;;;;;;;1.02;0.60;;;;;;;2.50;100.00;97464.47;5027423;28;20057;-60
2024/02/23 08:02:49;;;;;;;4.65;1.08;;;;;;;2.52;100.00;97456.69;5027297;28;20050;-60
2024/02/23 08:05:17;;;;;;;2.72;0.80;;;;;;;2.52;100.00;97462.16;5037680;28;20779;-61
2024/02/23 08:07:50;;;;;;;3.20;1.38;;;;;;;2.55;100.00;97466.06;5027856;28;20055;-60
2024/02/23 08:10:17;;;;;;;3.50;0.60;;;;;;;2.59;100.00;97456.00;5023491;28;20064;-61
2024/02/23 08:12:45;;;;;;;6.15;0.88;;;;;;;2.61;100.00;97470.84;5025771;28;20041;-60
2024/02/23 08:15:12;;;;;;;4.35;0.65;;;;;;;2.65;100.00;97460.75;5026591;28;20046;-60
2024/02/23 08:17:40;;;;;;;7.45;0.95;;;;;;;2.68;100.00;97475.59;5026583;28;20060;-60
2024/02/23 08:20:08;;;;;;;6.53;0.82;;;;;;;2.66;100.00;97473.25;5025674;28;20049;-60
2024/02/23 08:22:36;;;;;;;1.58;0.63;;;;;;;2.65;100.00;97479.84;5026468;28;20605;-60
2024/02/23 08:25:04;;;;;;;2.50;0.73;;;;;;;2.67;100.00;97482.22;5026502;28;20045;-61
2024/02/23 08:27:31;;;;;;;5.72;0.77;;;;;;;2.71;100.00;97492.03;5026441;28;20495;-59
2024/02/23 08:29:59;;;;;;;1.95;1.00;;;;;;;2.74;100.00;97496.75;5026409;28;20121;-61
2024/02/23 08:32:26;;;;;;;3.38;0.52;;;;;;;2.77;100.00;97496.00;5014430;28;21378;-61
2024/02/23 08:34:59;;;;;;;3.13;0.55;;;;;;;2.79;100.00;97488.22;5026058;28;20407;-59
2024/02/23 08:37:27;;;;;;;3.72;0.47;;;;;;;2.82;100.00;97503.06;5026122;28;20049;-60
2024/02/23 08:39:54;;;;;;;5.30;0.55;;;;;;;2.82;100.00;97503.88;5025256;28;20061;-58
2024/02/23 08:42:25;;;;;;;6.22;0.88;;;;;;;2.84;100.00;97507.00;5026975;28;20433;-60
2024/02/23 08:44:54;;;;;;;0.95;0.73;;;;;;;2.86;100.00;97506.66;5027142;28;20061;-60
2024/02/23 08:47:21;;;;;;;7.45;1.27;;;;;;;2.86;100.00;97510.16;5031557;28;20513;-62
2024/02/23 08:49:49;;;;;;;2.42;0.60;;;;;;;2.87;100.00;97517.19;5026491;28;20049;-60
2024/02/23 08:52:17;;;;;;;9.98;2.72;;;;;;;2.88;100.00;97513.31;5021859;28;20166;-60
2024/02/23 08:54:44;;;;;;;2.60;0.90;;;;;;;2.91;100.00;97500.84;5026411;28;20415;-60
2024/02/23 08:57:11;;;;;;;3.70;1.50;;;;;;;2.92;100.00;97508.66;5026120;28;20394;-60
2024/02/23 08:59:39;;;;;;;4.18;0.93;;;;;;;2.94;100.00;97511.81;5022754;28;20052;-60
2024/02/23 09:02:07;;;;;;;4.15;0.90;;;;;;;2.95;100.00;97510.66;5029657;28;20522;-60
2024/02/23 09:04:35;;;;;;;1.15;0.70;;;;;;;2.97;100.00;97522.00;5017376;28;20054;-60
2024/02/23 09:07:04;;;;;;;3.30;0.88;;;;;;;2.99;100.00;97508.72;5029786;28;20130;-60
2024/02/23 09:09:32;;;;;;;4.03;0.82;;;;;;;3.01;100.00;97525.56;5028248;28;20400;-60
2024/02/23 09:11:59;;;;;;;4.35;0.88;;;;;;;3.04;100.00;97519.31;5031326;28;20041;-57
2024/02/23 09:14:27;;;;;;;2.88;0.85;;;;;;;3.05;100.00;97528.31;5029980;28;20637;-61
2024/02/23 09:16:55;;;;;;;1.50;0.40;;;;;;;3.06;100.00;97530.69;5024407;28;20056;-59
2024/02/23 09:19:25;;;;;;;5.80;1.58;;;;;;;3.06;100.00;97541.63;5029463;28;20045;-60
2024/02/23 09:21:53;;;;;;;1.70;0.60;;;;;;;3.08;100.00;97533.03;5030853;28;20056;-60
2024/02/23 09:24:20;;;;;;;4.70;1.15;;;;;;;3.10;100.00;97522.50;5029084;28;20057;-60
2024/02/23 09:26:48;;;;;;;1.83;0.95;;;;;;;3.13;100.00;97537.38;5025700;28;20080;-59
2024/02/23 09:29:15;;;;;;;5.10;0.80;;;;;;;3.12;100.00;97525.69;5023216;28;20056;-58
2024/02/23 09:31:45;;;;;;;3.78;0.50;;;;;;;3.14;100.00;97519.81;5025689;28;20049;-60
2024/02/23 09:34:13;;;;;;;2.15;0.70;;;;;;;3.14;100.00;97526.09;5031673;28;20096;-60
2024/02/23 09:36:45;;;;;;;1.88;0.57;;;;;;;3.16;100.00;97520.22;5028655;28;20406;-60
2024/02/23 09:39:15;;;;;;;1.40;0.60;;;;;;;3.16;100.00;97522.97;5031142;28;20049;-59
2024/02/23 09:41:50;;;;;;;5.60;1.42;;;;;;;3.14;100.00;97530.75;5030318;28;20045;-60
2024/02/23 09:44:20;;;;;;;0.55;0.38;;;;;;;3.14;100.00;97519.81;5020977;28;20503;-60
2024/02/23 09:46:48;;;;;;;1.85;0.60;;;;;;;3.12;100.00;97512.00;5030381;28;20045;-60
2024/02/23 09:49:16;;;;;;;1.20;0.50;;;;;;;3.14;100.00;97514.34;5031792;28;20045;-60
2024/02/23 09:51:45;;;;;;;2.72;0.88;;;;;;;3.12;100.00;97514.75;5029713;28;20415;-59
2024/02/23 09:54:15;;;;;;;1.48;0.52;;;;;;;3.15;100.00;97527.63;5030203;28;20415;-60
2024/02/23 09:56:46;;;;;;;4.13;0.87;;;;;;;3.19;100.00;97530.41;5030085;28;20503;-60
2024/02/23 09:59:14;;;;;;;4.55;1.25;;;;;;;3.23;100.00;97528.53;5021805;28;20455;-60
2024/02/23 10:01:41;;;;;;;1.63;0.50;;;;;;;3.26;100.00;97531.28;5027655;28;20057;-59
2024/02/23 10:04:09;;;;;;;0.85;0.43;;;;;;;3.28;100.00;97530.91;5029305;28;20056;-60
2024/02/23 10:06:36;;;;;;;2.58;0.40;;;;;;;3.30;100.00;97523.91;5029492;28;20049;-59
2024/02/23 10:09:04;;;;;;;0.35;0.30;;;;;;;3.34;100.00;97534.84;5030973;28;20045;-60
2024/02/23 10:11:31;;;;;;;2.83;2.38;;;;;;;3.40;100.00;97533.38;5031076;28;20052;-60
2024/02/23 10:13:59;;;;;;;2.50;0.70;;;;;;;3.44;100.00;97545.13;5024374;28;20049;-60
2024/02/23 10:16:29;;;;;;;0.50;0.50;;;;;;;3.48;100.00;97543.22;5030117;28;20068;-59
2024/02/23 10:18:57;;;;;;;1.05;0.47;;;;;;;3.52;100.00;97554.97;5030720;28;20053;-60
2024/02/23 10:21:25;;;;;;;1.67;0.50;;;;;;;3.52;100.00;97553.00;5031444;28;20041;-60
2024/02/23 10:23:52;;;;;;;2.58;0.63;;;;;;;3.53;100.00;97559.28;5031304;28;20046;-60
2024/02/23 10:26:22;;;;;;;4.38;0.63;;;;;;;3.54;100.00;97555.38;5026478;28;20508;-60
2024/02/23 10:28:53;;;;;;;3.50;0.60;;;;;;;3.54;100.00;97555.38;5029465;28;20104;-59
2024/02/23 10:31:21;;;;;;;3.30;0.90;;;;;;;3.55;100.00;97556.94;5027637;28;20042;-60
2024/02/23 10:33:52;;;;;;;2.30;0.60;;;;;;;3.57;100.00;97560.09;5030383;28;20497;-60
2024/02/23 10:36:27;;;;;;;2.83;1.05;;;;;;;3.59;100.00;97560.50;5028709;28;20503;-60
2024/02/23 10:39:05;;;;;;;5.47;1.08;;;;;;;3.61;100.00;97564.44;5024485;28;20045;-60
2024/02/23 10:41:36;;;;;;;5.97;1.52;;;;;;;3.65;100.00;97567.22;5024632;28;20072;-60
2024/02/23 10:44:04;;;;;;;4.55;0.82;;;;;;;3.67;100.00;97571.16;5029279;28;20049;-60
2024/02/23 10:46:32;;;;;;;2.38;0.70;;;;;;;3.70;100.00;97564.13;5029041;28;20042;-58
2024/02/23 10:49:01;;;;;;;0.95;0.73;;;;;;;3.72;100.00;97572.75;5023467;28;20049;-60
2024/02/23 10:51:32;;;;;;;2.80;0.70;;;;;;;3.75;100.00;97565.72;5028156;28;20049;-60
2024/02/23 10:54:00;;;;;;;3.47;0.90;;;;;;;3.79;100.00;97567.31;5027180;28;20049;-59
2024/02/23 10:56:28;;;;;;;1.65;0.80;;;;;;;3.87;100.00;97574.44;5029339;28;21017;-60
2024/02/23 10:58:58;;;;;;;5.50;1.20;;;;;;;3.94;100.00;97579.19;5029576;28;20708;-60
2024/02/23 11:01:26;;;;;;;1.90;0.50;;;;;;;4.01;100.00;97573.78;5026450;28;20050;-60
2024/02/23 11:03:54;;;;;;;5.82;0.80;;;;;;;4.06;100.00;97576.94;5036436;28;20736;-60
2024/02/23 11:06:27;;;;;;;1.52;0.80;;;;;;;4.10;100.00;97577.75;5034021;28;20045;-61
2024/02/23 11:09:08;;;;;;;2.40;0.45;;;;;;;4.14;100.00;97575.84;5027272;28;20037;-60
2024/02/23 11:11:37;;;;;;;3.10;1.00;;;;;;;4.16;100.00;97576.25;5024568;28;20416;-60
2024/02/23 11:14:10;;;;;;;0.65;0.50;;;;;;;4.19;100.00;97578.22;5027670;28;20037;-59
2024/02/23 11:16:42;;;;;;;3.42;1.30;;;;;;;4.24;100.00;97577.88;5026881;28;20609;-59
2024/02/23 11:19:39;;;;;;;1.35;0.65;;;;;;;4.30;100.00;97576.34;5027951;28;20042;-59
2024/02/23 11:22:14;;;;;;;2.58;1.00;;;;;;;4.38;100.00;97576.38;5026106;28;20606;-59
2024/02/23 11:24:52;;;;;;;3.83;1.20;;;;;;;4.42;100.00;97574.47;5015486;28;20056;-59
2024/02/23 11:27:24;;;;;;;1.13;0.60;;;;;;;4.50;100.00;97578.84;5027700;28;20050;-60
2024/02/23 11:30:08;;;;;;;4.00;0.95;;;;;;;4.55;100.00;97582.00;5027594;28;20071;-60
2024/02/23 11:32:41;;;;;;;2.28;0.60;;;;;;;4.60;100.00;97578.09;5025895;28;20049;-59
2024/02/23 11:35:12;;;;;;;3.70;1.45;;;;;;;4.66;100.00;97590.28;5027926;28;20045;-60
2024/02/23 11:37:59;;;;;;;3.95;1.00;;;;;;;4.72;100.00;97592.25;5027872;28;20123;-59
2024/02/23 11:40:28;;;;;;;1.88;0.90;;;;;;;4.75;100.00;97590.69;5025915;28;20064;-58